createdAt,value
2023-05-25T00:00:21.095Z,14.96
2023-05-25T00:02:52.768Z,15.06
2023-05-25T00:05:20.276Z,15.07
2023-05-25T00:07:47.408Z,14.97
2023-05-25T00:10:14.120Z,15.02
2023-05-25T00:12:40.854Z,14.98
2023-05-25T00:15:10.628Z,14.86
2023-05-25T00:17:41.412Z,14.95
2023-05-25T00:20:11.386Z,14.90
2023-05-25T00:22:39.507Z,14.85
2023-05-25T00:25:06.951Z,14.84
2023-05-25T00:27:33.598Z,14.99
2023-05-25T00:30:00.471Z,15.08
2023-05-25T00:32:29.939Z,14.96
2023-05-25T00:34:56.548Z,15.05
2023-05-25T00:37:23.216Z,15.07
2023-05-25T00:39:49.875Z,15.02
2023-05-25T00:42:16.545Z,15.00
2023-05-25T00:44:43.683Z,14.98
2023-05-25T00:47:11.663Z,15.01
2023-05-25T00:49:38.340Z,14.97
2023-05-25T00:52:05.631Z,14.90
2023-05-25T00:54:37.661Z,14.87
2023-05-25T00:57:07.864Z,14.80
2023-05-25T00:59:41.306Z,14.75
2023-05-25T01:02:18.250Z,14.85
2023-05-25T01:04:47.417Z,14.66
2023-05-25T01:07:18.124Z,14.71
2023-05-25T01:09:49.026Z,14.72
2023-05-25T01:12:16.377Z,14.66
2023-05-25T01:14:43.715Z,14.66
2023-05-25T01:17:11.047Z,14.69
2023-05-25T01:19:41.037Z,14.68
2023-05-25T01:22:22.213Z,14.63
2023-05-25T01:24:52.287Z,14.62
2023-05-25T01:27:43.455Z,14.61
2023-05-25T01:30:15.405Z,14.48
2023-05-25T01:32:43.482Z,14.51
2023-05-25T01:35:11.334Z,14.42
2023-05-25T01:37:40.289Z,14.36
2023-05-25T01:40:10.474Z,14.38
2023-05-25T01:42:37.021Z,14.33
2023-05-25T01:45:09.197Z,14.20
2023-05-25T01:47:49.571Z,14.24
2023-05-25T01:50:23.046Z,14.21
2023-05-25T01:53:04.173Z,14.07
2023-05-25T01:55:35.275Z,14.13
2023-05-25T01:58:02.696Z,14.06
2023-05-25T02:00:33.758Z,14.04
2023-05-25T02:03:03.790Z,14.04
2023-05-25T02:05:32.804Z,14.10
2023-05-25T02:08:01.830Z,14.06
2023-05-25T02:10:31.817Z,13.83
2023-05-25T02:12:58.668Z,14.09
2023-05-25T02:15:25.733Z,13.94
2023-05-25T02:17:52.360Z,14.02
2023-05-25T02:20:19.152Z,13.96
2023-05-25T02:22:46.434Z,14.09
2023-05-25T02:25:13.239Z,14.02
2023-05-25T02:27:43.131Z,14.01
2023-05-25T02:30:10.352Z,13.97
2023-05-25T02:32:37.552Z,14.14
2023-05-25T02:35:04.635Z,14.09
2023-05-25T02:37:31.724Z,14.13
2023-05-25T02:39:58.450Z,14.14
2023-05-25T02:42:25.565Z,14.13
2023-05-25T02:44:52.238Z,13.96
2023-05-25T02:47:19.314Z,14.06
2023-05-25T02:49:48.090Z,14.02
2023-05-25T02:52:14.920Z,13.79
2023-05-25T02:54:42.150Z,14.09
2023-05-25T02:57:12.279Z,13.96
2023-05-25T02:59:39.194Z,13.96
2023-05-25T03:02:06.228Z,13.79
2023-05-25T03:04:34.525Z,13.97
2023-05-25T03:07:01.750Z,13.95
2023-05-25T03:09:28.954Z,13.84
2023-05-25T03:11:55.752Z,13.83
2023-05-25T03:14:22.389Z,13.88
2023-05-25T03:16:55.188Z,13.65
2023-05-25T03:19:23.290Z,13.80
2023-05-25T03:21:50.316Z,13.85
2023-05-25T03:24:18.692Z,13.53
2023-05-25T03:26:45.426Z,13.77
2023-05-25T03:29:12.084Z,13.89
2023-05-25T03:31:38.656Z,13.90
2023-05-25T03:34:08.035Z,13.90
2023-05-25T03:36:38.919Z,13.85
2023-05-25T03:39:07.170Z,13.89
2023-05-25T03:41:33.884Z,13.74
2023-05-25T03:44:00.597Z,13.83
2023-05-25T03:46:27.406Z,13.74
2023-05-25T03:48:57.191Z,13.83
2023-05-25T03:51:23.898Z,13.82
2023-05-25T03:53:50.639Z,13.66
2023-05-25T03:56:17.208Z,13.76
2023-05-25T03:58:43.870Z,13.74
2023-05-25T04:01:11.364Z,13.73
2023-05-25T04:03:38.175Z,13.82
2023-05-25T04:06:04.937Z,13.81
2023-05-25T04:08:31.528Z,13.82
2023-05-25T04:10:58.185Z,13.80
2023-05-25T04:13:24.773Z,13.67
2023-05-25T04:15:52.387Z,13.82
2023-05-25T04:18:22.148Z,13.83
2023-05-25T04:20:49.413Z,13.83
2023-05-25T04:23:19.534Z,13.88
2023-05-25T04:25:46.569Z,13.89
2023-05-25T04:28:14.468Z,13.76
2023-05-25T04:30:57.254Z,13.87
2023-05-25T04:33:38.879Z,13.80
2023-05-25T04:36:18.070Z,13.96
2023-05-25T04:38:48.423Z,13.97
2023-05-25T04:41:15.848Z,14.00
2023-05-25T04:44:04.762Z,14.02
2023-05-25T04:46:37.256Z,14.01
2023-05-25T04:49:10.118Z,14.12
2023-05-25T04:51:37.427Z,14.10
2023-05-25T04:54:04.125Z,14.11
2023-05-25T04:56:31.168Z,14.23
2023-05-25T04:58:57.868Z,14.27
2023-05-25T05:01:26.420Z,14.31
2023-05-25T05:03:55.899Z,14.28
2023-05-25T05:06:22.958Z,14.24
2023-05-25T05:08:49.668Z,14.27
2023-05-25T05:11:16.429Z,14.35
2023-05-25T05:13:43.886Z,14.32
2023-05-25T05:16:10.466Z,14.35
2023-05-25T05:18:37.608Z,14.30
2023-05-25T05:21:04.461Z,14.35
2023-05-25T05:23:33.722Z,14.38
2023-05-25T05:26:00.803Z,14.37
2023-05-25T05:28:31.178Z,14.33
2023-05-25T05:30:58.190Z,14.41
2023-05-25T05:33:26.345Z,14.54
2023-05-25T05:35:53.385Z,14.58
2023-05-25T05:38:23.600Z,14.53
2023-05-25T05:40:50.220Z,14.74
2023-05-25T05:44:32.279Z,14.53
2023-05-25T05:47:02.030Z,15.06
2023-05-25T05:49:30.697Z,15.21
2023-05-25T05:51:58.325Z,15.37
2023-05-25T05:54:25.132Z,15.45
2023-05-25T05:56:52.474Z,15.57
2023-05-25T05:59:21.510Z,15.72
2023-05-25T06:01:48.131Z,15.73
2023-05-25T06:04:16.060Z,15.97
2023-05-25T06:06:43.305Z,16.17
2023-05-25T06:09:14.007Z,16.38
2023-05-25T06:11:40.629Z,16.38
2023-05-25T06:14:08.145Z,16.51
2023-05-25T06:16:36.530Z,16.90
2023-05-25T06:19:03.350Z,17.18
2023-05-25T06:21:30.029Z,17.30
2023-05-25T06:23:59.498Z,17.40
2023-05-25T06:26:27.261Z,17.40
2023-05-25T06:28:54.720Z,17.37
2023-05-25T06:31:21.439Z,17.38
2023-05-25T06:33:48.780Z,17.52
2023-05-25T06:36:15.827Z,17.57
2023-05-25T06:38:43.692Z,17.60
2023-05-25T06:41:12.863Z,17.57
2023-05-25T06:43:39.848Z,17.58
2023-05-25T06:46:17.984Z,17.40
2023-05-25T06:48:45.766Z,17.28
2023-05-25T06:51:12.382Z,17.24
2023-05-25T06:53:41.865Z,17.23
2023-05-25T06:56:08.513Z,17.13
2023-05-25T06:58:35.236Z,17.24
2023-05-25T07:01:02.430Z,17.18
2023-05-25T07:03:29.130Z,17.18
2023-05-25T07:05:55.865Z,17.34
2023-05-25T07:08:22.488Z,17.35
2023-05-25T07:10:50.364Z,17.35
2023-05-25T07:13:17.424Z,17.21
2023-05-25T07:15:44.774Z,17.23
2023-05-25T07:18:12.653Z,17.00
2023-05-25T07:20:42.224Z,17.04
2023-05-25T07:23:10.187Z,17.16
2023-05-25T07:25:38.083Z,17.19
2023-05-25T07:28:05.013Z,17.16
2023-05-25T07:30:31.622Z,17.14
2023-05-25T07:32:58.953Z,17.12
2023-05-25T07:35:25.802Z,17.25
2023-05-25T07:37:59.414Z,17.31
2023-05-25T07:40:26.364Z,17.33
2023-05-25T07:42:53.555Z,17.36
2023-05-25T07:45:21.147Z,17.53
2023-05-25T07:47:47.871Z,17.70
2023-05-25T07:50:15.110Z,17.89
2023-05-25T07:52:42.328Z,18.16
2023-05-25T07:55:09.610Z,18.54
2023-05-25T07:57:37.687Z,18.90
2023-05-25T08:00:11.095Z,19.09
2023-05-25T08:02:41.080Z,19.33
2023-05-25T08:05:08.367Z,19.41
2023-05-25T08:07:35.123Z,19.39
2023-05-25T08:10:02.671Z,19.50
2023-05-25T08:12:47.049Z,19.86
2023-05-25T08:15:15.036Z,20.00
2023-05-25T08:17:41.821Z,20.17
2023-05-25T08:20:09.265Z,20.63
2023-05-25T08:22:36.155Z,20.87
2023-05-25T08:25:04.121Z,21.12
2023-05-25T08:27:32.281Z,21.17
2023-05-25T08:30:00.558Z,20.99
2023-05-25T08:32:27.304Z,20.99
2023-05-25T08:34:54.026Z,21.10
2023-05-25T08:37:23.435Z,21.07
2023-05-25T08:39:50.169Z,21.22
2023-05-25T08:42:16.782Z,21.37
2023-05-25T08:44:43.534Z,21.45
2023-05-25T08:47:11.984Z,21.50
2023-05-25T08:49:39.431Z,21.64
2023-05-25T08:52:10.567Z,21.64
2023-05-25T08:54:40.904Z,21.79
2023-05-25T08:57:17.766Z,22.01
2023-05-25T09:00:04.118Z,22.16
2023-05-25T09:02:52.050Z,22.45
2023-05-25T09:05:19.206Z,22.56
2023-05-25T09:07:46.725Z,22.75
2023-05-25T09:10:14.562Z,22.90
2023-05-25T09:12:42.739Z,23.02
2023-05-25T09:15:12.811Z,23.20
2023-05-25T09:17:41.242Z,23.24
2023-05-25T09:20:10.842Z,23.18
2023-05-25T09:22:37.563Z,23.10
2023-05-25T09:25:06.988Z,23.02
2023-05-25T09:27:35.915Z,22.82
2023-05-25T09:30:02.644Z,22.62
2023-05-25T09:32:29.534Z,22.68
2023-05-25T09:34:57.700Z,22.76
2023-05-25T09:37:24.512Z,22.90
2023-05-25T09:39:51.536Z,23.05
2023-05-25T09:42:18.283Z,23.11
2023-05-25T09:44:45.047Z,23.32
2023-05-25T09:47:13.859Z,23.49
2023-05-25T09:49:41.890Z,23.55
2023-05-25T09:52:08.858Z,23.53
2023-05-25T09:54:36.420Z,23.55
2023-05-25T09:57:05.147Z,23.54
2023-05-25T09:59:32.286Z,23.57
2023-05-25T10:02:02.699Z,23.64
2023-05-25T10:04:29.666Z,23.66
2023-05-25T10:06:57.044Z,23.60
2023-05-25T10:09:25.951Z,23.64
2023-05-25T10:11:52.816Z,23.53
2023-05-25T10:14:30.169Z,23.52
2023-05-25T10:17:01.657Z,23.43
2023-05-25T10:19:42.761Z,23.62
2023-05-25T10:22:38.819Z,23.78
2023-05-25T10:25:10.756Z,24.21
2023-05-25T10:27:43.799Z,24.61
2023-05-25T10:30:11.082Z,24.86
2023-05-25T10:32:37.913Z,24.99
2023-05-25T10:35:08.090Z,24.93
2023-05-25T10:37:37.812Z,24.85
2023-05-25T10:40:08.577Z,24.91
2023-05-25T10:42:37.023Z,24.80
2023-05-25T10:45:06.753Z,24.87
2023-05-25T10:47:35.740Z,25.03
2023-05-25T10:50:03.549Z,25.15
2023-05-25T10:52:32.220Z,25.20
2023-05-25T10:55:08.143Z,25.19
2023-05-25T10:57:35.149Z,25.30
2023-05-25T11:00:10.283Z,25.30
2023-05-25T11:02:58.178Z,25.22
2023-05-25T11:05:27.746Z,25.12
2023-05-25T11:07:58.356Z,25.03
2023-05-25T11:10:44.835Z,24.94
2023-05-25T11:13:23.690Z,24.94
2023-05-25T11:16:18.314Z,24.89
2023-05-25T11:18:47.060Z,24.77
2023-05-25T11:21:22.843Z,24.68
2023-05-25T11:23:58.725Z,24.64
2023-05-25T11:26:27.160Z,24.63
2023-05-25T11:28:54.840Z,24.76
2023-05-25T11:31:35.205Z,24.85
2023-05-25T11:34:05.777Z,24.77
2023-05-25T11:36:34.818Z,24.50
2023-05-25T11:39:06.693Z,24.70
2023-05-25T11:41:47.795Z,24.63
2023-05-25T11:44:14.908Z,24.55
2023-05-25T11:46:48.701Z,24.49
2023-05-25T11:49:15.880Z,24.51
2023-05-25T11:51:43.272Z,24.51
2023-05-25T11:54:09.923Z,24.47
2023-05-25T11:56:37.132Z,24.41
2023-05-25T11:59:07.568Z,24.45
2023-05-25T12:01:34.228Z,24.37
2023-05-25T12:04:09.321Z,24.27
2023-05-25T12:06:38.977Z,24.44
2023-05-25T12:09:11.919Z,24.52
2023-05-25T12:11:38.868Z,24.61
2023-05-25T12:14:07.004Z,24.73
2023-05-25T12:16:35.194Z,24.90
2023-05-25T12:19:02.422Z,25.10
2023-05-25T12:21:29.260Z,25.22
2023-05-25T12:23:56.295Z,25.26
2023-05-25T12:26:23.468Z,25.36
2023-05-25T12:29:07.343Z,25.19
2023-05-25T12:31:35.852Z,25.18
2023-05-25T12:34:16.520Z,25.37
2023-05-25T12:36:50.630Z,25.56
2023-05-25T12:39:29.613Z,25.64
2023-05-25T12:42:02.009Z,25.49
2023-05-25T12:44:31.602Z,25.29
2023-05-25T12:47:25.607Z,25.12
2023-05-25T12:49:53.782Z,25.17
2023-05-25T12:52:34.747Z,25.19
2023-05-25T12:55:19.991Z,25.02
2023-05-25T12:57:53.286Z,25.03
2023-05-25T13:00:22.094Z,25.36
2023-05-25T13:02:50.529Z,25.68
2023-05-25T13:05:22.049Z,26.29
2023-05-25T13:07:48.973Z,26.44
2023-05-25T13:10:17.775Z,26.32
2023-05-25T13:12:45.933Z,26.18
2023-05-25T13:15:15.292Z,26.07
2023-05-25T13:17:43.780Z,25.95
2023-05-25T13:20:18.535Z,25.84
2023-05-25T13:22:46.296Z,25.80
2023-05-25T13:25:13.781Z,25.86
2023-05-25T13:27:48.818Z,26.29
2023-05-25T13:30:15.746Z,26.31
2023-05-25T13:32:43.470Z,26.35
2023-05-25T13:35:19.368Z,26.21
2023-05-25T13:37:46.334Z,26.10
2023-05-25T13:40:13.614Z,25.85
2023-05-25T13:42:40.703Z,25.67
2023-05-25T13:45:08.033Z,25.74
2023-05-25T13:47:34.776Z,25.71
2023-05-25T13:50:01.548Z,25.55
2023-05-25T13:52:28.685Z,25.74
2023-05-25T13:54:55.351Z,25.79
2023-05-25T13:57:22.540Z,25.94
2023-05-25T13:59:49.339Z,26.20
2023-05-25T14:02:16.203Z,26.54
2023-05-25T14:04:42.866Z,26.82
2023-05-25T14:07:09.539Z,26.92
2023-05-25T14:09:36.546Z,26.83
2023-05-25T14:12:03.407Z,26.79
2023-05-25T14:14:32.520Z,26.71
2023-05-25T14:17:01.089Z,26.57
2023-05-25T14:19:28.113Z,26.50
2023-05-25T14:24:24.362Z,26.36
2023-05-25T14:26:51.070Z,26.50
2023-05-25T14:29:17.801Z,26.62
2023-05-25T14:31:44.441Z,26.57
2023-05-25T14:34:11.096Z,26.52
2023-05-25T14:36:38.927Z,26.39
2023-05-25T14:39:05.590Z,26.31
2023-05-25T14:41:32.180Z,26.27
2023-05-25T14:43:58.784Z,26.20
2023-05-25T14:46:25.563Z,26.10
2023-05-25T14:48:52.294Z,26.06
2023-05-25T14:51:18.923Z,26.01
2023-05-25T14:53:45.980Z,26.00
2023-05-25T14:56:12.710Z,25.85
2023-05-25T14:58:39.433Z,25.87
2023-05-25T15:01:06.144Z,26.03
2023-05-25T15:03:33.220Z,26.15
2023-05-25T15:05:59.911Z,26.33
2023-05-25T15:08:26.856Z,26.41
2023-05-25T15:10:53.563Z,26.60
2023-05-25T15:13:22.666Z,26.56
2023-05-25T15:15:52.104Z,26.60
2023-05-25T15:18:18.942Z,26.72
2023-05-25T15:20:46.042Z,26.59
2023-05-25T15:23:12.752Z,26.41
2023-05-25T15:25:39.356Z,26.24
2023-05-25T15:28:06.823Z,26.15
2023-05-25T15:30:34.391Z,26.13
2023-05-25T15:33:01.804Z,26.02
2023-05-25T15:35:31.184Z,26.00
2023-05-25T15:38:01.504Z,26.03
2023-05-25T15:40:28.408Z,25.95
2023-05-25T15:42:55.098Z,25.90
2023-05-25T15:45:21.807Z,25.88
2023-05-25T15:47:49.014Z,25.87
2023-05-25T15:50:16.143Z,25.84
2023-05-25T15:52:43.033Z,25.84
2023-05-25T15:55:09.881Z,25.88
2023-05-25T15:57:36.476Z,25.84
2023-05-25T16:00:05.573Z,25.75
2023-05-25T16:02:32.670Z,25.75
2023-05-25T16:04:59.414Z,25.66
2023-05-25T16:07:26.086Z,25.73
2023-05-25T16:09:52.639Z,25.65
2023-05-25T16:12:19.442Z,25.59
2023-05-25T16:14:46.093Z,25.56
2023-05-25T16:17:12.753Z,25.55
2023-05-25T16:19:39.398Z,25.55
2023-05-25T16:22:06.028Z,25.63
2023-05-25T16:24:32.647Z,25.58
2023-05-25T16:26:59.353Z,25.65
2023-05-25T16:29:26.236Z,25.59
2023-05-25T16:31:54.742Z,25.52
2023-05-25T16:34:21.896Z,25.48
2023-05-25T16:36:48.591Z,25.50
2023-05-25T16:39:15.272Z,25.48
2023-05-25T16:41:41.950Z,25.44
2023-05-25T16:44:10.862Z,25.50
2023-05-25T16:46:37.964Z,25.39
2023-05-25T16:49:05.143Z,25.31
2023-05-25T16:51:31.726Z,25.33
2023-05-25T16:53:58.426Z,25.26
2023-05-25T16:56:25.094Z,25.20
2023-05-25T16:58:51.919Z,25.24
2023-05-25T17:01:18.654Z,25.22
2023-05-25T17:03:45.563Z,25.15
2023-05-25T17:06:12.908Z,25.06
2023-05-25T17:08:39.555Z,25.01
2023-05-25T17:11:06.185Z,24.99
2023-05-25T17:13:32.854Z,24.87
2023-05-25T17:15:59.658Z,24.82
2023-05-25T17:18:26.922Z,24.72
2023-05-25T17:20:54.014Z,24.62
2023-05-25T17:23:22.007Z,24.65
2023-05-25T17:25:48.701Z,24.65
2023-05-25T17:28:15.398Z,24.57
2023-05-25T17:30:42.016Z,24.46
2023-05-25T17:33:08.735Z,24.52
2023-05-25T17:35:35.494Z,24.47
2023-05-25T17:38:02.236Z,24.47
2023-05-25T17:40:28.939Z,24.50
2023-05-25T17:42:55.646Z,24.47
2023-05-25T17:45:22.380Z,24.38
2023-05-25T17:47:49.073Z,24.35
2023-05-25T17:50:16.628Z,24.33
2023-05-25T17:52:43.329Z,24.30
2023-05-25T17:55:10.317Z,24.25
2023-05-25T17:57:36.951Z,24.17
2023-05-25T18:00:04.461Z,23.93
2023-05-25T18:02:39.703Z,24.10
2023-05-25T18:05:06.826Z,24.02
2023-05-25T18:07:34.018Z,24.11
2023-05-25T18:10:00.818Z,24.11
2023-05-25T18:12:27.422Z,23.91
2023-05-25T18:14:54.101Z,23.96
2023-05-25T18:17:20.708Z,24.01
2023-05-25T18:19:47.417Z,23.92
2023-05-25T18:22:14.153Z,23.88
2023-05-25T18:24:40.750Z,23.87
2023-05-25T18:27:07.414Z,23.84
2023-05-25T18:29:34.205Z,23.83
2023-05-25T18:32:00.795Z,23.70
2023-05-25T18:34:27.468Z,23.81
2023-05-25T18:36:54.062Z,23.74
2023-05-25T18:39:20.735Z,23.81
2023-05-25T18:41:47.467Z,23.73
2023-05-25T18:44:14.185Z,23.69
2023-05-25T18:46:43.200Z,23.59
2023-05-25T18:49:10.845Z,23.47
2023-05-25T18:51:37.796Z,23.49
2023-05-25T18:54:04.590Z,23.41
2023-05-25T18:56:31.197Z,23.41
2023-05-25T18:58:58.204Z,23.37
2023-05-25T19:01:25.553Z,23.33
2023-05-25T19:03:52.496Z,23.22
2023-05-25T19:06:19.381Z,23.23
2023-05-25T19:08:46.053Z,23.13
2023-05-25T19:11:14.378Z,23.10
2023-05-25T19:13:41.130Z,23.04
2023-05-25T19:16:08.592Z,22.92
2023-05-25T19:18:35.343Z,22.94
2023-05-25T19:21:02.597Z,22.89
2023-05-25T19:23:29.364Z,22.87
2023-05-25T19:25:56.687Z,22.82
2023-05-25T19:28:23.624Z,22.74
2023-05-25T19:30:50.602Z,22.71
2023-05-25T19:33:17.269Z,22.63
2023-05-25T19:35:44.063Z,22.59
2023-05-25T19:38:11.068Z,22.38
2023-05-25T19:40:37.649Z,22.49
2023-05-25T19:43:04.707Z,22.48
2023-05-25T19:45:31.434Z,22.38
2023-05-25T19:47:58.185Z,22.42
2023-05-25T19:50:30.341Z,22.33
2023-05-25T19:52:58.623Z,22.29
2023-05-25T19:55:25.676Z,22.27
2023-05-25T19:57:52.489Z,22.16
2023-05-25T20:00:26.142Z,22.12
2023-05-25T20:02:53.572Z,22.04
2023-05-25T20:05:20.382Z,22.02
2023-05-25T20:07:47.373Z,22.02
2023-05-25T20:10:14.269Z,21.93
2023-05-25T20:12:41.514Z,21.91
2023-05-25T20:15:08.561Z,21.92
2023-05-25T20:17:35.366Z,21.89
2023-05-25T20:20:03.762Z,21.85
2023-05-25T20:22:32.176Z,21.75
2023-05-25T20:25:00.735Z,21.77
2023-05-25T20:27:27.798Z,21.66
2023-05-25T20:29:54.779Z,21.66
2023-05-25T20:32:21.626Z,21.62
2023-05-25T20:34:48.314Z,21.57
2023-05-25T20:37:15.215Z,21.47
2023-05-25T20:39:41.808Z,21.51
2023-05-25T20:42:08.612Z,21.38
2023-05-25T20:44:35.463Z,21.34
2023-05-25T20:47:02.151Z,21.33
2023-05-25T20:49:28.777Z,21.24
2023-05-25T20:51:55.508Z,21.14
2023-05-25T20:54:22.108Z,21.14
2023-05-25T20:56:50.929Z,21.07
2023-05-25T20:59:17.583Z,20.98
2023-05-25T21:01:44.646Z,20.81
2023-05-25T21:04:11.536Z,20.78
2023-05-25T21:06:38.297Z,20.80
2023-05-25T21:09:05.007Z,20.69
2023-05-25T21:11:31.656Z,20.62
2023-05-25T21:13:58.320Z,20.58
2023-05-25T21:16:25.622Z,20.48
2023-05-25T21:18:52.340Z,20.43
2023-05-25T21:21:19.210Z,20.34
2023-05-25T21:23:46.026Z,20.36
2023-05-25T21:26:12.789Z,20.22
2023-05-25T21:28:42.400Z,20.20
2023-05-25T21:31:09.091Z,20.19
2023-05-25T21:33:37.560Z,20.17
2023-05-25T21:36:04.355Z,20.10
2023-05-25T21:38:31.061Z,20.01
2023-05-25T21:40:58.733Z,19.96
2023-05-25T21:43:27.237Z,19.83
2023-05-25T21:45:53.952Z,19.78
2023-05-25T21:48:21.410Z,19.77
2023-05-25T21:50:50.478Z,19.79
2023-05-25T21:53:17.741Z,19.72
2023-05-25T21:55:45.408Z,19.71
2023-05-25T21:58:17.514Z,19.67
2023-05-25T22:00:44.556Z,19.55
2023-05-25T22:03:11.320Z,19.55
2023-05-25T22:05:38.138Z,19.44
2023-05-25T22:08:05.460Z,19.38
2023-05-25T22:10:32.210Z,19.36
2023-05-25T22:12:58.902Z,19.30
2023-05-25T22:15:25.636Z,19.30
2023-05-25T22:17:52.482Z,19.33
2023-05-25T22:20:19.363Z,19.27
2023-05-25T22:22:46.154Z,19.29
2023-05-25T22:25:13.270Z,19.22
2023-05-25T22:27:40.686Z,19.18
2023-05-25T22:30:07.938Z,19.04
2023-05-25T22:32:35.170Z,19.03
2023-05-25T22:35:02.334Z,19.04
2023-05-25T22:37:28.981Z,18.98
2023-05-25T22:39:55.605Z,18.83
2023-05-25T22:42:22.262Z,18.84
2023-05-25T22:44:51.711Z,18.80
2023-05-25T22:47:18.401Z,18.78
2023-05-25T22:49:45.261Z,18.70
2023-05-25T22:52:12.318Z,18.74
2023-05-25T22:54:39.678Z,18.72
2023-05-25T22:57:08.230Z,18.33
2023-05-25T22:59:35.024Z,18.46
2023-05-25T23:02:01.868Z,18.56
2023-05-25T23:04:28.621Z,18.56
2023-05-25T23:06:55.275Z,18.46
2023-05-25T23:09:21.931Z,18.43
2023-05-25T23:11:48.538Z,18.48
2023-05-25T23:14:15.209Z,18.47
2023-05-25T23:16:41.938Z,18.39
2023-05-25T23:19:08.620Z,18.38
2023-05-25T23:21:35.336Z,18.29
2023-05-25T23:24:02.015Z,18.27
2023-05-25T23:26:28.682Z,18.26
2023-05-25T23:28:55.449Z,18.20
2023-05-25T23:31:22.207Z,18.10
2023-05-25T23:33:48.888Z,18.14
2023-05-25T23:36:15.596Z,18.12
2023-05-25T23:38:42.736Z,17.92
2023-05-25T23:41:09.382Z,18.08
2023-05-25T23:43:36.049Z,18.09
2023-05-25T23:46:02.755Z,18.10
2023-05-25T23:48:29.392Z,18.06
2023-05-25T23:50:56.146Z,18.10
2023-05-25T23:53:22.777Z,18.01
2023-05-25T23:55:49.551Z,18.04
2023-05-25T23:58:16.420Z,18.08
